sensor_id;sensor_type;location;lat;lon;timestamp;P1;durP1;ratioP1;P2;durP2;ratioP2
21905;SDS011;11117;48.644;9.006;2023-08-30T00:00:10;21.00;;;15.90;;
21905;SDS011;11117;48.644;9.006;2023-08-30T00:03:01;20.13;;;15.07;;
21905;SDS011;11117;48.644;9.006;2023-08-30T00:05:52;17.67;;;14.43;;
21905;SDS011;11117;48.644;9.006;2023-08-30T00:08:43;20.70;;;16.37;;
21905;SDS011;11117;48.644;9.006;2023-08-30T00:11:34;26.23;;;15.77;;
21905;SDS011;11117;48.644;9.006;2023-08-30T00:14:25;19.13;;;15.30;;
21905;SDS011;11117;48.644;9.006;2023-08-30T00:17:16;20.97;;;15.87;;
21905;SDS011;11117;48.644;9.006;2023-08-30T00:20:07;19.33;;;14.40;;
21905;SDS011;11117;48.644;9.006;2023-08-30T00:22:58;20.97;;;16.70;;
21905;SDS011;11117;48.644;9.006;2023-08-30T00:25:49;20.30;;;15.57;;
21905;SDS011;11117;48.644;9.006;2023-08-30T00:28:40;18.80;;;15.57;;
21905;SDS011;11117;48.644;9.006;2023-08-30T00:31:31;18.60;;;15.73;;
21905;SDS011;11117;48.644;9.006;2023-08-30T00:34:22;21.53;;;16.77;;
21905;SDS011;11117;48.644;9.006;2023-08-30T00:37:13;25.03;;;18.17;;
21905;SDS011;11117;48.644;9.006;2023-08-30T00:40:05;19.33;;;16.27;;
21905;SDS011;11117;48.644;9.006;2023-08-30T00:42:56;19.70;;;16.63;;
21905;SDS011;11117;48.644;9.006;2023-08-30T00:45:47;20.67;;;15.17;;
21905;SDS011;11117;48.644;9.006;2023-08-30T00:48:40;22.33;;;16.33;;
21905;SDS011;11117;48.644;9.006;2023-08-30T00:51:31;19.70;;;16.20;;
21905;SDS011;11117;48.644;9.006;2023-08-30T00:54:22;19.80;;;14.60;;
21905;SDS011;11117;48.644;9.006;2023-08-30T00:57:13;21.97;;;17.00;;
21905;SDS011;11117;48.644;9.006;2023-08-30T01:00:05;19.47;;;16.27;;
21905;SDS011;11117;48.644;9.006;2023-08-30T01:02:57;20.90;;;17.07;;
21905;SDS011;11117;48.644;9.006;2023-08-30T01:05:47;19.23;;;15.63;;
21905;SDS011;11117;48.644;9.006;2023-08-30T01:08:39;21.80;;;15.63;;
21905;SDS011;11117;48.644;9.006;2023-08-30T01:11:36;21.87;;;18.13;;
21905;SDS011;11117;48.644;9.006;2023-08-30T01:17:42;20.30;;;17.17;;
21905;SDS011;11117;48.644;9.006;2023-08-30T01:20:35;21.50;;;17.87;;
21905;SDS011;11117;48.644;9.006;2023-08-30T01:23:40;20.23;;;16.20;;
21905;SDS011;11117;48.644;9.006;2023-08-30T01:29:57;22.33;;;17.27;;
21905;SDS011;11117;48.644;9.006;2023-08-30T01:32:48;21.67;;;16.37;;
21905;SDS011;11117;48.644;9.006;2023-08-30T01:35:40;22.73;;;18.13;;
21905;SDS011;11117;48.644;9.006;2023-08-30T01:38:32;21.67;;;17.40;;
21905;SDS011;11117;48.644;9.006;2023-08-30T01:41:24;21.43;;;17.73;;
21905;SDS011;11117;48.644;9.006;2023-08-30T01:44:16;24.07;;;18.30;;
21905;SDS011;11117;48.644;9.006;2023-08-30T01:47:07;23.03;;;16.37;;
21905;SDS011;11117;48.644;9.006;2023-08-30T01:49:58;23.83;;;17.70;;
21905;SDS011;11117;48.644;9.006;2023-08-30T01:52:50;19.43;;;16.53;;
21905;SDS011;11117;48.644;9.006;2023-08-30T01:55:42;22.20;;;17.53;;
21905;SDS011;11117;48.644;9.006;2023-08-30T01:58:33;21.37;;;16.80;;
21905;SDS011;11117;48.644;9.006;2023-08-30T02:01:24;23.57;;;17.17;;
21905;SDS011;11117;48.644;9.006;2023-08-30T02:04:15;23.90;;;17.10;;
21905;SDS011;11117;48.644;9.006;2023-08-30T02:07:08;24.43;;;18.20;;
21905;SDS011;11117;48.644;9.006;2023-08-30T02:10:06;23.93;;;17.73;;
21905;SDS011;11117;48.644;9.006;2023-08-30T02:13:02;27.97;;;17.97;;
21905;SDS011;11117;48.644;9.006;2023-08-30T02:15:55;22.33;;;16.90;;
21905;SDS011;11117;48.644;9.006;2023-08-30T02:18:46;27.03;;;18.27;;
21905;SDS011;11117;48.644;9.006;2023-08-30T02:21:39;28.33;;;18.40;;
21905;SDS011;11117;48.644;9.006;2023-08-30T02:24:30;24.93;;;18.00;;
21905;SDS011;11117;48.644;9.006;2023-08-30T02:27:21;24.47;;;16.93;;
21905;SDS011;11117;48.644;9.006;2023-08-30T02:30:12;21.13;;;16.07;;
21905;SDS011;11117;48.644;9.006;2023-08-30T02:33:04;26.63;;;18.80;;
21905;SDS011;11117;48.644;9.006;2023-08-30T02:35:55;24.70;;;17.80;;
21905;SDS011;11117;48.644;9.006;2023-08-30T02:38:46;24.67;;;16.60;;
21905;SDS011;11117;48.644;9.006;2023-08-30T02:41:37;22.00;;;17.27;;
21905;SDS011;11117;48.644;9.006;2023-08-30T02:44:28;25.00;;;18.63;;
21905;SDS011;11117;48.644;9.006;2023-08-30T02:47:19;26.47;;;18.80;;
21905;SDS011;11117;48.644;9.006;2023-08-30T02:50:10;22.57;;;17.30;;
21905;SDS011;11117;48.644;9.006;2023-08-30T02:53:01;22.53;;;16.30;;
21905;SDS011;11117;48.644;9.006;2023-08-30T07:48:02;9.93;;;8.73;;
21905;SDS011;11117;48.644;9.006;2023-08-30T07:50:28;9.95;;;8.23;;
21905;SDS011;11117;48.644;9.006;2023-08-30T07:52:53;12.40;;;8.30;;
21905;SDS011;11117;48.644;9.006;2023-08-30T07:55:19;10.90;;;8.32;;
21905;SDS011;11117;48.644;9.006;2023-08-30T07:57:44;10.02;;;8.02;;
21905;SDS011;11117;48.644;9.006;2023-08-30T08:00:10;13.68;;;8.52;;
21905;SDS011;11117;48.644;9.006;2023-08-30T08:02:36;8.93;;;7.78;;
21905;SDS011;11117;48.644;9.006;2023-08-30T08:05:02;9.48;;;8.48;;
21905;SDS011;11117;48.644;9.006;2023-08-30T08:07:28;9.40;;;7.80;;
21905;SDS011;11117;48.644;9.006;2023-08-30T08:09:54;9.20;;;7.95;;
21905;SDS011;11117;48.644;9.006;2023-08-30T08:12:21;10.85;;;7.75;;
21905;SDS011;11117;48.644;9.006;2023-08-30T08:14:47;9.02;;;7.28;;
21905;SDS011;11117;48.644;9.006;2023-08-30T08:17:12;7.68;;;6.88;;
21905;SDS011;11117;48.644;9.006;2023-08-30T08:19:38;8.18;;;7.18;;
21905;SDS011;11117;48.644;9.006;2023-08-30T08:22:04;7.55;;;6.55;;
21905;SDS011;11117;48.644;9.006;2023-08-30T08:24:29;11.25;;;7.70;;
21905;SDS011;11117;48.644;9.006;2023-08-30T08:26:55;9.90;;;7.82;;
21905;SDS011;11117;48.644;9.006;2023-08-30T08:29:20;10.73;;;7.50;;
21905;SDS011;11117;48.644;9.006;2023-08-30T08:31:46;7.65;;;6.93;;
21905;SDS011;11117;48.644;9.006;2023-08-30T08:34:11;7.68;;;6.85;;
21905;SDS011;11117;48.644;9.006;2023-08-30T08:36:38;8.50;;;6.90;;
21905;SDS011;11117;48.644;9.006;2023-08-30T08:39:04;7.53;;;6.82;;
21905;SDS011;11117;48.644;9.006;2023-08-30T08:41:34;11.50;;;7.40;;
21905;SDS011;11117;48.644;9.006;2023-08-30T08:44:05;9.02;;;6.90;;
21905;SDS011;11117;48.644;9.006;2023-08-30T08:46:31;7.57;;;6.88;;
21905;SDS011;11117;48.644;9.006;2023-08-30T08:48:57;7.28;;;6.47;;
21905;SDS011;11117;48.644;9.006;2023-08-30T08:51:26;8.48;;;6.50;;
21905;SDS011;11117;48.644;9.006;2023-08-30T08:53:53;6.53;;;5.63;;
21905;SDS011;11117;48.644;9.006;2023-08-30T08:56:26;14.65;;;7.22;;
21905;SDS011;11117;48.644;9.006;2023-08-30T08:58:52;16.42;;;6.88;;
21905;SDS011;11117;48.644;9.006;2023-08-30T09:01:18;9.85;;;6.25;;
21905;SDS011;11117;48.644;9.006;2023-08-30T09:03:44;12.85;;;6.05;;
21905;SDS011;11117;48.644;9.006;2023-08-30T09:06:13;10.63;;;5.82;;
21905;SDS011;11117;48.644;9.006;2023-08-30T09:08:39;7.30;;;5.90;;
21905;SDS011;11117;48.644;9.006;2023-08-30T09:11:04;15.18;;;5.50;;
21905;SDS011;11117;48.644;9.006;2023-08-30T09:13:30;18.23;;;6.07;;
21905;SDS011;11117;48.644;9.006;2023-08-30T09:15:56;10.32;;;5.70;;
21905;SDS011;11117;48.644;9.006;2023-08-30T09:18:21;7.47;;;4.88;;
21905;SDS011;11117;48.644;9.006;2023-08-30T09:20:47;9.20;;;5.00;;
21905;SDS011;11117;48.644;9.006;2023-08-30T09:23:16;5.93;;;4.38;;
21905;SDS011;11117;48.644;9.006;2023-08-30T09:25:42;6.38;;;4.43;;
21905;SDS011;11117;48.644;9.006;2023-08-30T09:28:09;4.93;;;4.30;;
21905;SDS011;11117;48.644;9.006;2023-08-30T09:30:34;5.00;;;4.50;;
21905;SDS011;11117;48.644;9.006;2023-08-30T09:33:01;4.75;;;4.35;;
21905;SDS011;11117;48.644;9.006;2023-08-30T09:35:27;4.53;;;4.13;;
21905;SDS011;11117;48.644;9.006;2023-08-30T09:37:52;5.22;;;4.10;;
21905;SDS011;11117;48.644;9.006;2023-08-30T09:40:18;4.97;;;4.28;;
21905;SDS011;11117;48.644;9.006;2023-08-30T09:42:44;4.82;;;4.00;;
21905;SDS011;11117;48.644;9.006;2023-08-30T09:45:19;4.45;;;4.05;;
21905;SDS011;11117;48.644;9.006;2023-08-30T09:47:47;6.63;;;3.78;;
21905;SDS011;11117;48.644;9.006;2023-08-30T09:50:13;4.90;;;3.53;;
21905;SDS011;11117;48.644;9.006;2023-08-30T09:52:42;3.85;;;3.50;;
21905;SDS011;11117;48.644;9.006;2023-08-30T09:55:08;3.75;;;3.15;;
21905;SDS011;11117;48.644;9.006;2023-08-30T09:57:34;3.58;;;2.90;;
21905;SDS011;11117;48.644;9.006;2023-08-30T10:00:00;22.40;;;3.38;;
21905;SDS011;11117;48.644;9.006;2023-08-30T10:02:26;9.77;;;2.95;;
21905;SDS011;11117;48.644;9.006;2023-08-30T10:04:52;2.97;;;2.60;;
21905;SDS011;11117;48.644;9.006;2023-08-30T10:07:19;4.20;;;2.92;;
21905;SDS011;11117;48.644;9.006;2023-08-30T10:09:46;2.90;;;2.65;;
21905;SDS011;11117;48.644;9.006;2023-08-30T10:12:12;3.90;;;2.65;;
21905;SDS011;11117;48.644;9.006;2023-08-30T10:14:39;5.45;;;2.72;;
21905;SDS011;11117;48.644;9.006;2023-08-30T10:17:05;4.05;;;3.28;;
21905;SDS011;11117;48.644;9.006;2023-08-30T10:19:33;3.63;;;2.95;;
21905;SDS011;11117;48.644;9.006;2023-08-30T10:22:05;4.95;;;2.67;;
21905;SDS011;11117;48.644;9.006;2023-08-30T10:24:32;2.92;;;2.67;;
21905;SDS011;11117;48.644;9.006;2023-08-30T10:27:09;3.67;;;2.90;;
21905;SDS011;11117;48.644;9.006;2023-08-30T10:29:36;5.28;;;3.13;;
21905;SDS011;11117;48.644;9.006;2023-08-30T10:32:04;3.33;;;3.03;;
21905;SDS011;11117;48.644;9.006;2023-08-30T10:34:33;3.00;;;2.70;;
21905;SDS011;11117;48.644;9.006;2023-08-30T10:37:00;3.30;;;2.90;;
21905;SDS011;11117;48.644;9.006;2023-08-30T10:39:32;3.10;;;2.90;;
21905;SDS011;11117;48.644;9.006;2023-08-30T10:41:59;3.70;;;3.17;;
21905;SDS011;11117;48.644;9.006;2023-08-30T10:44:25;6.25;;;3.40;;
21905;SDS011;11117;48.644;9.006;2023-08-30T10:46:54;4.88;;;3.13;;
21905;SDS011;11117;48.644;9.006;2023-08-30T10:49:20;3.17;;;2.88;;
21905;SDS011;11117;48.644;9.006;2023-08-30T10:51:53;3.60;;;3.17;;
21905;SDS011;11117;48.644;9.006;2023-08-30T10:54:20;4.75;;;2.90;;
21905;SDS011;11117;48.644;9.006;2023-08-30T10:59:21;3.40;;;2.95;;
21905;SDS011;11117;48.644;9.006;2023-08-30T11:01:48;2.80;;;2.60;;
21905;SDS011;11117;48.644;9.006;2023-08-30T11:04:15;3.50;;;2.95;;
21905;SDS011;11117;48.644;9.006;2023-08-30T11:06:42;6.63;;;2.70;;
21905;SDS011;11117;48.644;9.006;2023-08-30T11:09:08;3.15;;;2.45;;
21905;SDS011;11117;48.644;9.006;2023-08-30T11:11:36;2.47;;;2.28;;
21905;SDS011;11117;48.644;9.006;2023-08-30T11:14:08;5.07;;;2.55;;
21905;SDS011;11117;48.644;9.006;2023-08-30T11:16:34;3.22;;;2.30;;
21905;SDS011;11117;48.644;9.006;2023-08-30T11:19:03;3.08;;;2.15;;
21905;SDS011;11117;48.644;9.006;2023-08-30T11:21:30;3.95;;;2.50;;
21905;SDS011;11117;48.644;9.006;2023-08-30T11:23:57;3.50;;;2.70;;
21905;SDS011;11117;48.644;9.006;2023-08-30T11:26:22;3.03;;;2.50;;
21905;SDS011;11117;48.644;9.006;2023-08-30T11:28:48;5.00;;;2.60;;
21905;SDS011;11117;48.644;9.006;2023-08-30T11:31:24;2.80;;;2.55;;
21905;SDS011;11117;48.644;9.006;2023-08-30T11:33:53;3.38;;;2.58;;
21905;SDS011;11117;48.644;9.006;2023-08-30T11:36:20;4.60;;;2.67;;
21905;SDS011;11117;48.644;9.006;2023-08-30T11:38:46;3.88;;;2.53;;
21905;SDS011;11117;48.644;9.006;2023-08-30T11:41:11;1.73;;;1.63;;
21905;SDS011;11117;48.644;9.006;2023-08-30T11:43:38;2.00;;;1.80;;
21905;SDS011;11117;48.644;9.006;2023-08-30T11:46:04;3.33;;;1.60;;
21905;SDS011;11117;48.644;9.006;2023-08-30T11:48:30;5.78;;;2.10;;
21905;SDS011;11117;48.644;9.006;2023-08-30T11:50:56;3.25;;;1.35;;
21905;SDS011;11117;48.644;9.006;2023-08-30T11:53:22;6.72;;;1.50;;
21905;SDS011;11117;48.644;9.006;2023-08-30T11:55:48;3.25;;;1.60;;
21905;SDS011;11117;48.644;9.006;2023-08-30T11:58:13;4.97;;;2.10;;
21905;SDS011;11117;48.644;9.006;2023-08-30T12:00:39;2.95;;;2.30;;
21905;SDS011;11117;48.644;9.006;2023-08-30T12:03:05;4.15;;;2.30;;
21905;SDS011;11117;48.644;9.006;2023-08-30T12:05:31;3.72;;;3.05;;
21905;SDS011;11117;48.644;9.006;2023-08-30T12:07:57;4.05;;;2.80;;
21905;SDS011;11117;48.644;9.006;2023-08-30T12:10:22;3.95;;;3.03;;
21905;SDS011;11117;48.644;9.006;2023-08-30T12:12:48;3.50;;;3.17;;
21905;SDS011;11117;48.644;9.006;2023-08-30T12:15:13;3.33;;;3.03;;
21905;SDS011;11117;48.644;9.006;2023-08-30T12:17:39;3.65;;;3.33;;
21905;SDS011;11117;48.644;9.006;2023-08-30T12:20:05;3.58;;;3.28;;
21905;SDS011;11117;48.644;9.006;2023-08-30T12:25:21;3.75;;;2.90;;
21905;SDS011;11117;48.644;9.006;2023-08-30T12:27:47;2.72;;;2.20;;
21905;SDS011;11117;48.644;9.006;2023-08-30T12:30:14;6.05;;;3.65;;
21905;SDS011;11117;48.644;9.006;2023-08-30T12:32:40;6.18;;;3.30;;
21905;SDS011;11117;48.644;9.006;2023-08-30T12:35:05;3.92;;;3.20;;
21905;SDS011;11117;48.644;9.006;2023-08-30T12:37:31;3.78;;;2.90;;
21905;SDS011;11117;48.644;9.006;2023-08-30T12:39:57;4.07;;;2.95;;
21905;SDS011;11117;48.644;9.006;2023-08-30T12:42:22;6.03;;;2.90;;
21905;SDS011;11117;48.644;9.006;2023-08-30T12:44:48;6.43;;;2.80;;
21905;SDS011;11117;48.644;9.006;2023-08-30T12:47:13;3.40;;;2.75;;
21905;SDS011;11117;48.644;9.006;2023-08-30T12:49:39;3.58;;;2.60;;
21905;SDS011;11117;48.644;9.006;2023-08-30T12:52:05;2.92;;;2.63;;
21905;SDS011;11117;48.644;9.006;2023-08-30T12:54:31;3.85;;;2.65;;
21905;SDS011;11117;48.644;9.006;2023-08-30T12:56:56;3.47;;;3.00;;
21905;SDS011;11117;48.644;9.006;2023-08-30T12:59:22;2.95;;;2.70;;
21905;SDS011;11117;48.644;9.006;2023-08-30T13:01:47;2.67;;;2.47;;
21905;SDS011;11117;48.644;9.006;2023-08-30T13:04:13;2.53;;;2.30;;
21905;SDS011;11117;48.644;9.006;2023-08-30T13:06:38;2.72;;;2.50;;
21905;SDS011;11117;48.644;9.006;2023-08-30T13:09:04;5.28;;;2.97;;
21905;SDS011;11117;48.644;9.006;2023-08-30T13:11:30;3.40;;;2.97;;
21905;SDS011;11117;48.644;9.006;2023-08-30T13:13:55;3.33;;;3.03;;
21905;SDS011;11117;48.644;9.006;2023-08-30T13:16:21;3.10;;;2.55;;
21905;SDS011;11117;48.644;9.006;2023-08-30T13:18:46;2.63;;;2.40;;
21905;SDS011;11117;48.644;9.006;2023-08-30T13:21:12;4.72;;;2.50;;
21905;SDS011;11117;48.644;9.006;2023-08-30T13:23:37;2.50;;;2.30;;
21905;SDS011;11117;48.644;9.006;2023-08-30T13:26:03;3.72;;;3.30;;
21905;SDS011;11117;48.644;9.006;2023-08-30T13:28:28;3.25;;;2.95;;
21905;SDS011;11117;48.644;9.006;2023-08-30T13:30:54;3.33;;;3.03;;
21905;SDS011;11117;48.644;9.006;2023-08-30T13:33:19;5.05;;;3.42;;
21905;SDS011;11117;48.644;9.006;2023-08-30T13:35:48;3.58;;;2.50;;
21905;SDS011;11117;48.644;9.006;2023-08-30T13:38:14;2.53;;;2.20;;
21905;SDS011;11117;48.644;9.006;2023-08-30T13:40:40;4.03;;;2.80;;
21905;SDS011;11117;48.644;9.006;2023-08-30T13:43:05;2.78;;;2.20;;
21905;SDS011;11117;48.644;9.006;2023-08-30T13:45:31;3.60;;;2.30;;
21905;SDS011;11117;48.644;9.006;2023-08-30T13:47:57;3.25;;;2.33;;
21905;SDS011;11117;48.644;9.006;2023-08-30T13:50:22;2.47;;;2.28;;
21905;SDS011;11117;48.644;9.006;2023-08-30T13:52:48;2.60;;;2.10;;
21905;SDS011;11117;48.644;9.006;2023-08-30T13:55:13;2.20;;;2.00;;
21905;SDS011;11117;48.644;9.006;2023-08-30T13:57:39;2.30;;;2.10;;
21905;SDS011;11117;48.644;9.006;2023-08-30T14:00:05;2.63;;;1.90;;
21905;SDS011;11117;48.644;9.006;2023-08-30T14:02:31;1.95;;;1.75;;
21905;SDS011;11117;48.644;9.006;2023-08-30T14:04:56;2.03;;;1.88;;
21905;SDS011;11117;48.644;9.006;2023-08-30T14:07:22;1.80;;;1.70;;
21905;SDS011;11117;48.644;9.006;2023-08-30T14:09:47;2.10;;;1.90;;
21905;SDS011;11117;48.644;9.006;2023-08-30T14:12:13;4.15;;;1.60;;
21905;SDS011;11117;48.644;9.006;2023-08-30T14:14:38;4.65;;;1.95;;
21905;SDS011;11117;48.644;9.006;2023-08-30T14:17:04;1.45;;;1.35;;
21905;SDS011;11117;48.644;9.006;2023-08-30T14:19:29;4.78;;;1.80;;
21905;SDS011;11117;48.644;9.006;2023-08-30T14:21:55;1.70;;;1.60;;
21905;SDS011;11117;48.644;9.006;2023-08-30T14:24:21;1.60;;;1.50;;
21905;SDS011;11117;48.644;9.006;2023-08-30T14:26:46;2.15;;;1.73;;
21905;SDS011;11117;48.644;9.006;2023-08-30T14:29:12;2.35;;;1.80;;
21905;SDS011;11117;48.644;9.006;2023-08-30T14:31:37;1.95;;;1.80;;
21905;SDS011;11117;48.644;9.006;2023-08-30T14:34:03;4.35;;;1.92;;
21905;SDS011;11117;48.644;9.006;2023-08-30T14:36:28;2.53;;;2.00;;
21905;SDS011;11117;48.644;9.006;2023-08-30T14:38:54;2.03;;;1.67;;
21905;SDS011;11117;48.644;9.006;2023-08-30T14:41:19;3.20;;;1.95;;
21905;SDS011;11117;48.644;9.006;2023-08-30T14:43:45;2.35;;;2.00;;
21905;SDS011;11117;48.644;9.006;2023-08-30T14:46:10;2.00;;;1.80;;
21905;SDS011;11117;48.644;9.006;2023-08-30T14:48:36;2.28;;;2.10;;
21905;SDS011;11117;48.644;9.006;2023-08-30T14:51:04;2.00;;;1.90;;
21905;SDS011;11117;48.644;9.006;2023-08-30T14:53:30;3.42;;;1.90;;
21905;SDS011;11117;48.644;9.006;2023-08-30T14:55:56;3.85;;;2.03;;
21905;SDS011;11117;48.644;9.006;2023-08-30T14:58:21;1.92;;;1.83;;
21905;SDS011;11117;48.644;9.006;2023-08-30T15:00:47;3.60;;;1.98;;
21905;SDS011;11117;48.644;9.006;2023-08-30T15:03:13;1.88;;;1.73;;
21905;SDS011;11117;48.644;9.006;2023-08-30T15:05:39;2.70;;;1.70;;
21905;SDS011;11117;48.644;9.006;2023-08-30T15:08:05;1.95;;;1.80;;
21905;SDS011;11117;48.644;9.006;2023-08-30T15:10:31;2.38;;;1.90;;
21905;SDS011;11117;48.644;9.006;2023-08-30T15:12:56;1.85;;;1.75;;
21905;SDS011;11117;48.644;9.006;2023-08-30T15:15:22;1.80;;;1.70;;
21905;SDS011;11117;48.644;9.006;2023-08-30T15:17:47;3.95;;;1.98;;
21905;SDS011;11117;48.644;9.006;2023-08-30T15:20:13;2.35;;;2.00;;
21905;SDS011;11117;48.644;9.006;2023-08-30T15:22:39;3.58;;;2.60;;
21905;SDS011;11117;48.644;9.006;2023-08-30T15:25:05;2.58;;;1.95;;
21905;SDS011;11117;48.644;9.006;2023-08-30T15:27:31;2.10;;;1.90;;
21905;SDS011;11117;48.644;9.006;2023-08-30T15:29:56;2.20;;;1.88;;
21905;SDS011;11117;48.644;9.006;2023-08-30T15:32:22;2.47;;;1.80;;
21905;SDS011;11117;48.644;9.006;2023-08-30T15:34:48;3.67;;;1.90;;
21905;SDS011;11117;48.644;9.006;2023-08-30T15:37:14;1.98;;;1.75;;
21905;SDS011;11117;48.644;9.006;2023-08-30T15:39:41;2.30;;;1.73;;
21905;SDS011;11117;48.644;9.006;2023-08-30T15:42:06;2.55;;;1.85;;
21905;SDS011;11117;48.644;9.006;2023-08-30T15:44:32;1.95;;;1.83;;
21905;SDS011;11117;48.644;9.006;2023-08-30T15:46:57;3.83;;;1.80;;
21905;SDS011;11117;48.644;9.006;2023-08-30T15:49:23;2.17;;;1.60;;
21905;SDS011;11117;48.644;9.006;2023-08-30T15:51:48;3.15;;;1.90;;
21905;SDS011;11117;48.644;9.006;2023-08-30T15:54:14;1.98;;;1.77;;
21905;SDS011;11117;48.644;9.006;2023-08-30T15:56:39;1.98;;;1.80;;
21905;SDS011;11117;48.644;9.006;2023-08-30T15:59:05;1.83;;;1.73;;
21905;SDS011;11117;48.644;9.006;2023-08-30T16:01:30;2.58;;;1.90;;
21905;SDS011;11117;48.644;9.006;2023-08-30T16:03:56;2.00;;;1.77;;
21905;SDS011;11117;48.644;9.006;2023-08-30T16:06:22;1.75;;;1.60;;
21905;SDS011;11117;48.644;9.006;2023-08-30T16:08:48;2.80;;;2.00;;
21905;SDS011;11117;48.644;9.006;2023-08-30T16:11:13;3.47;;;1.83;;
21905;SDS011;11117;48.644;9.006;2023-08-30T16:13:39;2.13;;;1.80;;
21905;SDS011;11117;48.644;9.006;2023-08-30T16:16:04;1.90;;;1.80;;
21905;SDS011;11117;48.644;9.006;2023-08-30T16:18:30;3.42;;;1.70;;
21905;SDS011;11117;48.644;9.006;2023-08-30T16:20:56;3.85;;;1.83;;
21905;SDS011;11117;48.644;9.006;2023-08-30T16:23:21;4.03;;;2.00;;
21905;SDS011;11117;48.644;9.006;2023-08-30T16:25:47;4.45;;;1.88;;
21905;SDS011;11117;48.644;9.006;2023-08-30T16:28:12;4.60;;;2.03;;
21905;SDS011;11117;48.644;9.006;2023-08-30T16:30:38;3.88;;;1.92;;
21905;SDS011;11117;48.644;9.006;2023-08-30T16:33:03;3.00;;;1.98;;
21905;SDS011;11117;48.644;9.006;2023-08-30T16:35:29;2.95;;;2.05;;
21905;SDS011;11117;48.644;9.006;2023-08-30T16:37:55;3.38;;;2.17;;
21905;SDS011;11117;48.644;9.006;2023-08-30T16:40:20;5.05;;;2.00;;
21905;SDS011;11117;48.644;9.006;2023-08-30T16:42:46;2.10;;;1.90;;
21905;SDS011;11117;48.644;9.006;2023-08-30T16:45:12;6.38;;;2.03;;
21905;SDS011;11117;48.644;9.006;2023-08-30T16:47:37;3.28;;;2.00;;
21905;SDS011;11117;48.644;9.006;2023-08-30T16:50:03;2.40;;;2.17;;
21905;SDS011;11117;48.644;9.006;2023-08-30T16:52:29;2.20;;;2.00;;
21905;SDS011;11117;48.644;9.006;2023-08-30T16:54:55;2.92;;;2.20;;
21905;SDS011;11117;48.644;9.006;2023-08-30T16:57:21;4.28;;;2.15;;
21905;SDS011;11117;48.644;9.006;2023-08-30T16:59:46;2.28;;;2.00;;
21905;SDS011;11117;48.644;9.006;2023-08-30T17:02:12;3.45;;;2.55;;
21905;SDS011;11117;48.644;9.006;2023-08-30T17:04:37;2.30;;;2.10;;
21905;SDS011;11117;48.644;9.006;2023-08-30T17:07:03;2.65;;;2.17;;
21905;SDS011;11117;48.644;9.006;2023-08-30T17:09:32;8.00;;;2.35;;
21905;SDS011;11117;48.644;9.006;2023-08-30T17:11:59;3.47;;;2.22;;
21905;SDS011;11117;48.644;9.006;2023-08-30T17:14:25;2.85;;;2.00;;
21905;SDS011;11117;48.644;9.006;2023-08-30T17:16:51;2.30;;;2.10;;
21905;SDS011;11117;48.644;9.006;2023-08-30T17:19:17;5.43;;;2.38;;
21905;SDS011;11117;48.644;9.006;2023-08-30T17:21:43;3.15;;;2.33;;
21905;SDS011;11117;48.644;9.006;2023-08-30T17:24:08;3.08;;;2.50;;
21905;SDS011;11117;48.644;9.006;2023-08-30T17:26:34;3.47;;;2.55;;
21905;SDS011;11117;48.644;9.006;2023-08-30T17:29:00;2.80;;;1.85;;
21905;SDS011;11117;48.644;9.006;2023-08-30T17:31:25;2.33;;;1.90;;
21905;SDS011;11117;48.644;9.006;2023-08-30T17:33:51;2.60;;;1.90;;
21905;SDS011;11117;48.644;9.006;2023-08-30T17:36:16;4.65;;;2.10;;
21905;SDS011;11117;48.644;9.006;2023-08-30T17:38:42;4.95;;;2.30;;
21905;SDS011;11117;48.644;9.006;2023-08-30T17:41:08;4.70;;;2.33;;
21905;SDS011;11117;48.644;9.006;2023-08-30T17:43:34;2.40;;;2.20;;
21905;SDS011;11117;48.644;9.006;2023-08-30T17:45:59;2.67;;;2.35;;
21905;SDS011;11117;48.644;9.006;2023-08-30T17:48:25;5.45;;;2.28;;
21905;SDS011;11117;48.644;9.006;2023-08-30T17:50:51;4.63;;;2.30;;
21905;SDS011;11117;48.644;9.006;2023-08-30T17:53:18;3.45;;;2.25;;
21905;SDS011;11117;48.644;9.006;2023-08-30T17:55:43;5.93;;;2.53;;
21905;SDS011;11117;48.644;9.006;2023-08-30T17:58:09;6.38;;;3.17;;
21905;SDS011;11117;48.644;9.006;2023-08-30T18:00:34;2.97;;;2.65;;
21905;SDS011;11117;48.644;9.006;2023-08-30T18:03:00;3.63;;;3.10;;
21905;SDS011;11117;48.644;9.006;2023-08-30T18:05:25;4.20;;;3.10;;
21905;SDS011;11117;48.644;9.006;2023-08-30T18:07:51;3.55;;;3.10;;
21905;SDS011;11117;48.644;9.006;2023-08-30T18:10:17;4.63;;;3.00;;
21905;SDS011;11117;48.644;9.006;2023-08-30T18:12:42;4.25;;;3.20;;
21905;SDS011;11117;48.644;9.006;2023-08-30T18:15:08;3.85;;;3.03;;
21905;SDS011;11117;48.644;9.006;2023-08-30T18:17:34;5.82;;;3.15;;
21905;SDS011;11117;48.644;9.006;2023-08-30T18:19:59;5.43;;;3.47;;
21905;SDS011;11117;48.644;9.006;2023-08-30T18:22:25;3.47;;;3.17;;
21905;SDS011;11117;48.644;9.006;2023-08-30T18:24:50;3.63;;;3.10;;
21905;SDS011;11117;48.644;9.006;2023-08-30T18:27:16;4.10;;;3.50;;
21905;SDS011;11117;48.644;9.006;2023-08-30T18:29:42;3.80;;;3.40;;
21905;SDS011;11117;48.644;9.006;2023-08-30T18:32:08;5.40;;;3.50;;
21905;SDS011;11117;48.644;9.006;2023-08-30T18:34:34;4.28;;;3.20;;
21905;SDS011;11117;48.644;9.006;2023-08-30T18:36:59;4.03;;;3.60;;
21905;SDS011;11117;48.644;9.006;2023-08-30T18:39:25;4.97;;;3.28;;
21905;SDS011;11117;48.644;9.006;2023-08-30T18:41:50;7.88;;;3.50;;
21905;SDS011;11117;48.644;9.006;2023-08-30T18:44:16;3.70;;;2.97;;
21905;SDS011;11117;48.644;9.006;2023-08-30T18:46:41;6.85;;;3.40;;
21905;SDS011;11117;48.644;9.006;2023-08-30T18:49:07;6.40;;;3.47;;
21905;SDS011;11117;48.644;9.006;2023-08-30T18:51:33;7.13;;;4.00;;
21905;SDS011;11117;48.644;9.006;2023-08-30T18:53:59;3.92;;;3.53;;
21905;SDS011;11117;48.644;9.006;2023-08-30T18:56:24;4.15;;;3.65;;
21905;SDS011;11117;48.644;9.006;2023-08-30T18:58:50;5.47;;;3.50;;
21905;SDS011;11117;48.644;9.006;2023-08-30T19:01:16;4.78;;;3.78;;
21905;SDS011;11117;48.644;9.006;2023-08-30T19:03:41;6.13;;;4.20;;
21905;SDS011;11117;48.644;9.006;2023-08-30T19:06:07;5.18;;;3.72;;
21905;SDS011;11117;48.644;9.006;2023-08-30T19:08:33;5.00;;;3.97;;
21905;SDS011;11117;48.644;9.006;2023-08-30T19:10:59;5.60;;;4.00;;
21905;SDS011;11117;48.644;9.006;2023-08-30T19:13:25;5.45;;;3.88;;
21905;SDS011;11117;48.644;9.006;2023-08-30T19:15:50;6.75;;;3.78;;
21905;SDS011;11117;48.644;9.006;2023-08-30T19:18:16;5.43;;;3.88;;
21905;SDS011;11117;48.644;9.006;2023-08-30T19:20:41;4.80;;;3.70;;
21905;SDS011;11117;48.644;9.006;2023-08-30T19:23:07;4.60;;;3.65;;
21905;SDS011;11117;48.644;9.006;2023-08-30T19:25:33;9.25;;;3.80;;
21905;SDS011;11117;48.644;9.006;2023-08-30T19:27:58;4.70;;;4.15;;
21905;SDS011;11117;48.644;9.006;2023-08-30T19:30:24;5.63;;;3.78;;
21905;SDS011;11117;48.644;9.006;2023-08-30T19:32:50;7.50;;;5.47;;
21905;SDS011;11117;48.644;9.006;2023-08-30T19:35:16;4.90;;;4.40;;
21905;SDS011;11117;48.644;9.006;2023-08-30T19:37:43;5.13;;;3.90;;
21905;SDS011;11117;48.644;9.006;2023-08-30T19:40:09;7.97;;;3.75;;
21905;SDS011;11117;48.644;9.006;2023-08-30T19:42:34;5.20;;;4.22;;
21905;SDS011;11117;48.644;9.006;2023-08-30T19:45:00;5.35;;;3.90;;
21905;SDS011;11117;48.644;9.006;2023-08-30T19:47:32;6.80;;;3.83;;
21905;SDS011;11117;48.644;9.006;2023-08-30T19:49:58;4.10;;;3.70;;
21905;SDS011;11117;48.644;9.006;2023-08-30T19:52:24;4.65;;;3.63;;
21905;SDS011;11117;48.644;9.006;2023-08-30T19:54:50;3.92;;;3.28;;
21905;SDS011;11117;48.644;9.006;2023-08-30T19:57:17;4.28;;;3.30;;
21905;SDS011;11117;48.644;9.006;2023-08-30T19:59:43;3.88;;;3.35;;
21905;SDS011;11117;48.644;9.006;2023-08-30T20:02:12;5.63;;;3.42;;
21905;SDS011;11117;48.644;9.006;2023-08-30T20:04:38;6.65;;;3.47;;